Kenosha, WI (53140)

2:25 AM CST on November 27, 2014 (GMT -0600)
Green Bay & Washington Kenosha | Change Station
CLOSE
Current Station
Personal Weather Station
Location: Kenosha, WI
Elevation: 709 ft
Nearby Weather Stations

Elev 709 ft 42.60 °N, 87.87 °W | Updated 12 minutes ago

Partly Cloudy
Partly Cloudy
19.0 °F
Feels Like 13 °F
N
4.2
Wind Variable Wind from WSW

Today
High -- | Low -- °F
--% Chance of Precip.
Yesterday
High -- | Low -- °F
Precip. -- in
6:57 AM 4:20 PM
Waxing Crescent, 27% visible
Pressure 30.25 in
Visibility 5.0 miles
Clouds Clear
Windchill 13 °F
Dew Point 17 °F
Humidity 92%
Rainfall 0.00 in
Snow Depth Not available.
UV 0 out of 12
Pollen .10 out of 12
Air Quality Not available.
Flu Activity Not available.
METAR KENW 270753Z AUTO 31007KT 5SM BR CLR M07/M09 A3021 RMK AO2 SLP241 T10721094 $

More Conditions Fewer Conditions

Pressure 30.25 in
Visibility 5.0 miles
Clouds Clear
Windchill 13 °F
Dew Point 17 °F
Humidity 92%
Rainfall 0.00 in
Snow Depth Not available.
UV 0 out of 12
Pollen .10 out of 12
Air Quality Not available.
Flu Activity Not available.
METAR KENW 270753Z AUTO 31007KT 5SM BR CLR M07/M09 A3021 RMK AO2 SLP241 T10721094 $

More Conditions Fewer Conditions

10-Day Weather Forecast

Almanac

Astronomy

Nov. 27, 2014 Rise Set
Actual Time
Civil Twilight
Nautical Twilight
Astronomical Twilight
Moon
Length of Visible Light
Length of Day
Tomorrow will be .
, % of the Moon is Illuminated

Today's Extremes

State Highs State Lows

Community

WunderPhotos

Upload Photos

1,773,965 photos uploaded!

WunderBlogs® & News

Nearby

Air Quality

  Air Quality AQ Index Pollutant
Not available.

Snow Depth

Station Depth Elevation

Earthquake Activity

City Distance Mag. Time & Date
Minimum magnitude displayed is 2.5.

Coastal Water Temperatures

Place Temperature

Nearby Weather Stations